createdAt,value
2023-01-22T00:00:09.834Z,47.50
2023-01-22T00:02:41.947Z,48.70
2023-01-22T00:05:09.025Z,48.30
2023-01-22T00:07:35.879Z,53.30
2023-01-22T00:10:02.805Z,52.60
2023-01-22T00:12:29.752Z,45.00
2023-01-22T00:14:56.682Z,49.00
2023-01-22T00:17:24.528Z,47.80
2023-01-22T00:19:51.510Z,41.00
2023-01-22T00:22:18.465Z,40.30
2023-01-22T00:24:45.532Z,35.00
2023-01-22T00:27:12.451Z,34.20
2023-01-22T00:29:39.663Z,34.30
2023-01-22T00:32:06.733Z,33.20
2023-01-22T00:34:33.642Z,31.90
2023-01-22T00:37:00.615Z,31.60
2023-01-22T00:39:27.778Z,27.40
2023-01-22T00:41:54.681Z,30.70
2023-01-22T00:44:21.687Z,30.80
2023-01-22T00:46:49.244Z,31.60
2023-01-22T00:49:16.226Z,31.00
2023-01-22T00:51:45.524Z,29.60
2023-01-22T00:54:12.483Z,28.70
2023-01-22T00:56:40.489Z,30.70
2023-01-22T00:59:10.674Z,33.60
2023-01-22T01:01:38.725Z,31.90
2023-01-22T01:04:06.281Z,34.40
2023-01-22T01:06:33.244Z,35.30
2023-01-22T01:09:00.174Z,31.30
2023-01-22T01:11:27.833Z,30.90
2023-01-22T01:13:56.029Z,30.70
2023-01-22T01:16:26.045Z,31.70
2023-01-22T01:18:53.070Z,34.60
2023-01-22T01:21:20.681Z,38.00
2023-01-22T01:23:48.790Z,34.00
2023-01-22T01:26:16.312Z,34.70
2023-01-22T01:28:43.690Z,36.00
2023-01-22T01:31:12.674Z,35.70
2023-01-22T01:33:39.687Z,38.20
2023-01-22T01:36:35.299Z,38.10
2023-01-22T01:39:10.471Z,40.10
2023-01-22T01:41:37.362Z,70.10
2023-01-22T01:44:27.413Z,57.60
2023-01-22T01:47:05.358Z,67.80
2023-01-22T01:49:37.893Z,68.00
2023-01-22T01:52:06.928Z,47.30
2023-01-22T01:54:33.797Z,32.30
2023-01-22T01:57:04.688Z,29.60
2023-01-22T01:59:33.737Z,27.60
2023-01-22T04:21:49.309Z,23.60
2023-01-22T04:24:16.861Z,27.00
2023-01-22T04:26:43.769Z,27.20
2023-01-22T04:29:12.085Z,29.00
2023-01-22T04:31:39.270Z,32.30
2023-01-22T04:34:26.468Z,30.30
2023-01-22T04:37:12.217Z,37.00
2023-01-22T04:39:39.231Z,32.20
2023-01-22T04:42:09.033Z,32.60
2023-01-22T04:44:36.067Z,31.30
2023-01-22T04:47:08.071Z,28.90
2023-01-22T04:49:37.003Z,27.70
2023-01-22T04:52:05.247Z,26.80
2023-01-22T04:54:32.639Z,27.90
2023-01-22T04:56:59.579Z,29.10
2023-01-22T04:59:26.530Z,25.50
2023-01-22T05:01:53.520Z,22.70
2023-01-22T05:04:21.909Z,27.90
2023-01-22T05:06:48.985Z,23.60
2023-01-22T05:09:17.168Z,23.70
2023-01-22T05:11:57.994Z,25.50
2023-01-22T05:14:26.083Z,22.30
2023-01-22T05:16:53.003Z,23.90
2023-01-22T05:19:20.296Z,29.90
2023-01-22T05:21:48.203Z,22.20
2023-01-22T05:24:18.643Z,20.80
2023-01-22T05:26:45.922Z,24.40
2023-01-22T05:29:17.949Z,22.50
2023-01-22T05:32:05.274Z,21.70
2023-01-22T05:34:35.314Z,22.50
2023-01-22T05:37:02.301Z,24.30
2023-01-22T05:39:31.512Z,31.60
2023-01-22T05:42:00.642Z,30.80
2023-01-22T05:44:32.167Z,25.80
2023-01-22T05:47:00.520Z,29.30
2023-01-22T05:49:30.128Z,25.10
2023-01-22T05:51:58.291Z,25.20
2023-01-22T05:54:25.473Z,27.40
2023-01-22T05:56:52.784Z,29.30
2023-01-22T05:59:19.704Z,31.60
2023-01-22T06:01:53.160Z,28.80
2023-01-22T06:04:20.214Z,31.90
2023-01-22T06:06:47.147Z,28.70
2023-01-22T06:09:14.338Z,29.70
2023-01-22T06:11:41.471Z,31.20
2023-01-22T06:14:08.603Z,28.00
2023-01-22T06:16:35.723Z,27.00
2023-01-22T06:19:12.938Z,32.70
2023-01-22T06:21:51.392Z,31.00
2023-01-22T06:24:19.292Z,32.60
2023-01-22T06:26:47.017Z,36.50
2023-01-22T06:29:16.874Z,27.50
2023-01-22T06:31:44.426Z,29.90
2023-01-22T06:34:14.932Z,32.40
2023-01-22T06:36:43.623Z,31.90
2023-01-22T06:39:10.986Z,35.30
2023-01-22T06:41:41.890Z,32.60
2023-01-22T06:44:10.943Z,31.20
2023-01-22T06:46:38.042Z,34.00
2023-01-22T06:49:10.874Z,35.00
2023-01-22T06:51:39.042Z,33.30
2023-01-22T06:54:06.616Z,32.30
2023-01-22T06:56:33.798Z,39.10
2023-01-22T06:59:01.079Z,34.70
2023-01-22T07:01:28.047Z,37.80
2023-01-22T07:03:55.125Z,39.90
2023-01-22T07:06:24.466Z,47.10
2023-01-22T07:08:52.355Z,46.60
2023-01-22T07:11:19.337Z,46.30
2023-01-22T07:13:46.137Z,47.30
2023-01-22T07:16:13.226Z,51.50
2023-01-22T07:18:40.393Z,44.30
2023-01-22T07:21:07.325Z,52.70
2023-01-22T07:23:34.253Z,47.70
2023-01-22T07:26:01.256Z,58.00
2023-01-22T07:28:28.247Z,44.30
2023-01-22T07:30:56.610Z,44.90
2023-01-22T07:33:23.809Z,47.10
2023-01-22T07:35:55.806Z,51.80
2023-01-22T07:38:23.540Z,52.10
2023-01-22T07:40:50.604Z,59.90
2023-01-22T07:43:17.991Z,51.80
2023-01-22T07:45:44.980Z,50.60
2023-01-22T07:48:12.161Z,54.50
2023-01-22T07:50:40.328Z,62.00
2023-01-22T07:53:08.060Z,70.30
2023-01-22T07:55:38.912Z,67.50
2023-01-22T07:58:06.633Z,62.20
2023-01-22T08:00:35.495Z,53.00
2023-01-22T08:03:05.127Z,52.90
2023-01-22T08:05:32.064Z,47.50
2023-01-22T08:07:59.441Z,46.60
2023-01-22T08:10:26.824Z,52.00
2023-01-22T10:14:19.370Z,40.70
2023-01-22T10:16:46.709Z,42.50
2023-01-22T10:19:39.897Z,41.70
2023-01-22T10:22:22.664Z,51.20
2023-01-22T10:24:50.294Z,45.80
2023-01-22T10:27:23.120Z,47.20
2023-01-22T10:29:58.816Z,50.70
2023-01-22T10:32:29.533Z,50.60
2023-01-22T10:35:28.630Z,52.60
2023-01-22T10:37:56.132Z,46.40
2023-01-22T10:40:24.463Z,43.60
2023-01-22T10:43:13.536Z,48.00
2023-01-22T10:45:53.480Z,49.00
2023-01-22T10:48:20.841Z,55.50
2023-01-22T10:51:10.344Z,64.50
2023-01-22T10:53:38.520Z,49.80
2023-01-22T10:56:08.461Z,49.40
2023-01-22T10:58:37.244Z,51.60
2023-01-22T11:01:06.995Z,49.00
2023-01-22T11:03:38.429Z,45.60
2023-01-22T11:06:11.781Z,43.60
2023-01-22T11:08:45.644Z,42.30
2023-01-22T11:11:14.693Z,55.60
2023-01-22T11:13:47.335Z,47.40
2023-01-22T11:16:17.124Z,54.30
2023-01-22T11:19:02.470Z,49.00
2023-01-22T11:21:32.429Z,47.10
2023-01-22T11:24:37.537Z,51.10
2023-01-22T11:27:33.717Z,50.50
2023-01-22T11:30:14.400Z,54.70
2023-01-22T11:32:48.970Z,46.10
2023-01-22T11:38:02.122Z,49.00
2023-01-22T11:40:35.515Z,51.70
2023-01-22T11:43:20.960Z,53.90
2023-01-22T11:45:53.414Z,46.90
2023-01-22T11:48:24.242Z,47.80
2023-01-22T11:50:59.350Z,52.30
2023-01-22T11:53:54.207Z,45.90
2023-01-22T11:56:47.045Z,53.20
2023-01-22T11:59:32.089Z,51.30
2023-01-22T12:02:24.495Z,45.80
2023-01-22T12:05:17.110Z,46.20
2023-01-22T12:08:05.382Z,53.50
2023-01-22T12:11:05.077Z,48.20
2023-01-22T12:13:49.677Z,50.00
2023-01-22T12:16:25.878Z,49.90
2023-01-22T12:18:52.965Z,42.80
2023-01-22T12:21:53.585Z,46.20
2023-01-22T12:24:22.246Z,45.00
2023-01-22T12:27:03.559Z,41.50
2023-01-22T12:29:45.679Z,38.30
2023-01-22T12:32:15.566Z,40.20
2023-01-22T12:34:49.628Z,42.10
2023-01-22T12:37:20.040Z,43.10
2023-01-22T12:40:05.338Z,37.20
2023-01-22T12:43:02.049Z,34.90
2023-01-22T12:45:32.175Z,40.20
2023-01-22T12:48:05.479Z,46.40
2023-01-22T12:50:32.522Z,44.30
2023-01-22T12:53:00.724Z,48.90
2023-01-22T12:55:38.462Z,41.50
2023-01-22T12:58:05.366Z,41.30
2023-01-22T13:00:39.333Z,48.70
2023-01-22T13:03:32.009Z,44.40
2023-01-22T13:06:00.263Z,40.50
2023-01-22T13:08:39.675Z,44.70
2023-01-22T13:11:34.368Z,43.70
2023-01-22T13:14:22.741Z,42.00
2023-01-22T13:17:03.852Z,45.50
2023-01-22T13:19:38.840Z,43.50
2023-01-22T13:22:11.684Z,43.10
2023-01-22T13:24:38.667Z,41.60
2023-01-22T13:27:05.599Z,42.30
2023-01-22T13:29:39.932Z,42.80
2023-01-22T13:32:22.925Z,44.40
2023-01-22T13:34:54.709Z,45.50
2023-01-22T13:37:25.689Z,46.50
2023-01-22T13:39:52.612Z,55.00
2023-01-22T13:42:19.554Z,50.90
2023-01-22T13:44:49.891Z,60.40
2023-01-22T13:47:27.605Z,56.70
2023-01-22T13:49:54.546Z,53.70
2023-01-22T13:52:21.509Z,59.50
2023-01-22T13:55:21.352Z,64.00
2023-01-22T13:57:51.287Z,56.60
2023-01-22T14:00:28.997Z,57.20
2023-01-22T16:13:56.140Z,58.10
2023-01-22T16:16:25.955Z,52.40
2023-01-22T16:18:53.736Z,61.10
2023-01-22T16:21:21.726Z,56.50
2023-01-22T16:23:49.677Z,61.40
2023-01-22T16:26:18.553Z,61.10
2023-01-22T16:28:52.054Z,57.00
2023-01-22T16:31:24.263Z,65.90
2023-01-22T16:33:55.228Z,66.70
2023-01-22T16:36:24.568Z,59.80
2023-01-22T16:38:52.668Z,57.20
2023-01-22T16:41:25.113Z,56.60
2023-01-22T16:44:02.488Z,62.10
2023-01-22T16:46:30.896Z,62.60
2023-01-22T16:49:00.071Z,59.50
2023-01-22T16:51:28.443Z,57.30
2023-01-22T16:53:55.607Z,60.90
2023-01-22T16:56:22.899Z,64.10
2023-01-22T16:58:51.507Z,67.00
2023-01-22T17:01:19.022Z,61.20
2023-01-22T17:03:46.510Z,59.90
2023-01-22T17:06:27.961Z,62.20
2023-01-22T17:08:54.943Z,71.50
2023-01-22T17:11:47.257Z,73.00
2023-01-22T17:14:45.810Z,75.20
2023-01-22T17:17:12.961Z,73.40
2023-01-22T17:19:39.964Z,87.90
2023-01-22T17:22:10.772Z,86.70
2023-01-22T17:24:38.603Z,79.80
2023-01-22T17:27:05.493Z,71.40
2023-01-22T17:29:36.578Z,78.10
2023-01-22T17:32:06.557Z,95.30
2023-01-22T17:34:33.501Z,78.50
2023-01-22T17:37:00.564Z,87.60
2023-01-22T17:39:35.342Z,92.90
2023-01-22T17:42:02.279Z,84.80
2023-01-22T17:44:47.060Z,79.60
2023-01-22T17:47:16.895Z,80.90
2023-01-22T17:49:48.109Z,81.10
2023-01-22T17:52:24.203Z,79.40
2023-01-22T17:54:55.198Z,84.80
2023-01-22T17:57:25.960Z,82.10
2023-01-22T17:59:53.351Z,76.40
2023-01-22T18:02:20.632Z,63.30
2023-01-22T18:04:47.621Z,78.90
2023-01-22T18:07:14.546Z,65.50
2023-01-22T18:09:48.259Z,64.90
2023-01-22T18:12:23.926Z,61.60
2023-01-22T18:14:51.092Z,68.70
2023-01-22T18:17:18.365Z,73.10
2023-01-22T18:19:45.297Z,68.60
2023-01-22T18:22:12.488Z,73.80
2023-01-22T18:24:40.389Z,66.40
2023-01-22T18:27:07.705Z,72.00
2023-01-22T18:29:35.040Z,75.30
2023-01-22T18:32:02.045Z,82.90
2023-01-22T18:34:28.981Z,86.70
2023-01-22T18:36:56.049Z,87.90
2023-01-22T18:39:23.480Z,83.10
2023-01-22T18:41:50.920Z,91.70
2023-01-22T18:44:19.943Z,80.50
2023-01-22T18:46:48.600Z,84.00
2023-01-22T18:49:17.541Z,78.30
2023-01-22T18:51:45.128Z,80.30
2023-01-22T18:54:14.188Z,76.60
2023-01-22T18:56:41.555Z,83.70
2023-01-22T18:59:08.773Z,81.10
2023-01-22T19:01:38.508Z,69.90
2023-01-22T19:04:08.232Z,64.60
2023-01-22T19:06:44.225Z,67.40
2023-01-22T19:09:14.472Z,69.30
2023-01-22T19:14:18.184Z,69.60
2023-01-22T19:16:53.535Z,74.10
2023-01-22T19:21:52.588Z,65.70
2023-01-22T19:24:22.635Z,65.90
2023-01-22T19:26:51.499Z,74.30
2023-01-22T19:29:19.261Z,66.40
2023-01-22T19:31:48.447Z,83.80
2023-01-22T19:34:23.808Z,68.40
2023-01-22T19:37:01.510Z,90.30
2023-01-22T19:39:29.205Z,72.10
2023-01-22T19:41:56.884Z,71.00
2023-01-22T19:44:24.098Z,69.80
2023-01-22T19:46:51.746Z,71.00
2023-01-22T19:49:19.378Z,71.10
2023-01-22T19:51:46.644Z,72.60
2023-01-22T19:54:14.266Z,73.00
2023-01-22T19:56:43.738Z,75.90
2023-01-22T19:59:16.646Z,83.80
2023-01-22T20:01:45.639Z,71.00
2023-01-22T23:17:00.005Z,23.10
2023-01-22T23:19:27.303Z,26.10
2023-01-22T23:21:55.801Z,21.50
2023-01-22T23:24:23.011Z,28.90
2023-01-22T23:27:07.723Z,27.40
2023-01-22T23:29:34.835Z,30.50
2023-01-22T23:32:02.073Z,31.90
2023-01-22T23:34:29.122Z,29.40
2023-01-22T23:36:56.250Z,33.40
2023-01-22T23:39:23.269Z,32.60
2023-01-22T23:41:50.232Z,29.30
2023-01-22T23:44:17.370Z,29.20
2023-01-22T23:46:45.025Z,25.70
2023-01-22T23:49:12.372Z,28.50
2023-01-22T23:51:42.407Z,31.30
2023-01-22T23:54:09.775Z,31.00
2023-01-22T23:56:37.618Z,25.80
2023-01-22T23:59:05.072Z,31.10
